sensor_id;sensor_type;location;lat;lon;timestamp;P1;durP1;ratioP1;P2;durP2;ratioP2
49340;SDS011;35209;51.050;13.678;2023-06-26T00:03:39;4.63;;;4.32;;
49340;SDS011;35209;51.050;13.678;2023-06-26T00:08:40;5.00;;;4.70;;
49340;SDS011;35209;51.050;13.678;2023-06-26T00:13:42;4.93;;;4.63;;
49340;SDS011;35209;51.050;13.678;2023-06-26T00:18:44;5.38;;;4.97;;
49340;SDS011;35209;51.050;13.678;2023-06-26T00:23:46;5.43;;;5.03;;
49340;SDS011;35209;51.050;13.678;2023-06-26T00:28:47;5.82;;;5.43;;
49340;SDS011;35209;51.050;13.678;2023-06-26T00:33:49;5.53;;;5.13;;
49340;SDS011;35209;51.050;13.678;2023-06-26T00:38:51;5.68;;;5.18;;
49340;SDS011;35209;51.050;13.678;2023-06-26T00:43:52;5.45;;;5.05;;
49340;SDS011;35209;51.050;13.678;2023-06-26T00:48:54;5.72;;;5.32;;
49340;SDS011;35209;51.050;13.678;2023-06-26T00:53:58;5.72;;;5.32;;
49340;SDS011;35209;51.050;13.678;2023-06-26T00:59:01;5.60;;;5.10;;
49340;SDS011;35209;51.050;13.678;2023-06-26T01:04:03;5.20;;;4.82;;
49340;SDS011;35209;51.050;13.678;2023-06-26T01:09:05;4.95;;;4.55;;
49340;SDS011;35209;51.050;13.678;2023-06-26T01:14:06;5.88;;;5.43;;
49340;SDS011;35209;51.050;13.678;2023-06-26T01:19:13;5.22;;;4.93;;
49340;SDS011;35209;51.050;13.678;2023-06-26T01:24:31;6.03;;;5.63;;
49340;SDS011;35209;51.050;13.678;2023-06-26T01:29:34;5.45;;;5.03;;
49340;SDS011;35209;51.050;13.678;2023-06-26T01:34:37;5.55;;;5.07;;
49340;SDS011;35209;51.050;13.678;2023-06-26T01:39:39;5.82;;;5.07;;
49340;SDS011;35209;51.050;13.678;2023-06-26T01:44:45;5.22;;;4.93;;
49340;SDS011;35209;51.050;13.678;2023-06-26T01:55:00;5.97;;;5.57;;
49340;SDS011;35209;51.050;13.678;2023-06-26T02:00:04;5.90;;;5.43;;
49340;SDS011;35209;51.050;13.678;2023-06-26T02:05:15;5.50;;;5.15;;
49340;SDS011;35209;51.050;13.678;2023-06-26T02:10:17;6.03;;;5.63;;
49340;SDS011;35209;51.050;13.678;2023-06-26T02:15:19;6.28;;;5.80;;
49340;SDS011;35209;51.050;13.678;2023-06-26T02:20:20;5.65;;;5.10;;
49340;SDS011;35209;51.050;13.678;2023-06-26T02:25:22;6.07;;;5.50;;
49340;SDS011;35209;51.050;13.678;2023-06-26T02:30:26;5.68;;;5.28;;
49340;SDS011;35209;51.050;13.678;2023-06-26T02:35:27;5.53;;;5.13;;
49340;SDS011;35209;51.050;13.678;2023-06-26T02:40:29;6.18;;;5.78;;
49340;SDS011;35209;51.050;13.678;2023-06-26T02:45:32;5.88;;;5.47;;
49340;SDS011;35209;51.050;13.678;2023-06-26T02:50:33;6.22;;;5.78;;
49340;SDS011;35209;51.050;13.678;2023-06-26T02:55:41;6.25;;;5.75;;
49340;SDS011;35209;51.050;13.678;2023-06-26T03:00:43;5.60;;;5.20;;
49340;SDS011;35209;51.050;13.678;2023-06-26T03:05:49;6.50;;;6.00;;
49340;SDS011;35209;51.050;13.678;2023-06-26T03:10:51;6.03;;;5.50;;
49340;SDS011;35209;51.050;13.678;2023-06-26T03:15:53;5.32;;;4.93;;
49340;SDS011;35209;51.050;13.678;2023-06-26T03:20:55;5.82;;;5.43;;
49340;SDS011;35209;51.050;13.678;2023-06-26T03:25:58;12.35;;;5.40;;
49340;SDS011;35209;51.050;13.678;2023-06-26T03:31:05;8.43;;;5.78;;
49340;SDS011;35209;51.050;13.678;2023-06-26T03:36:07;6.25;;;4.72;;
49340;SDS011;35209;51.050;13.678;2023-06-26T03:41:09;5.53;;;5.13;;
49340;SDS011;35209;51.050;13.678;2023-06-26T03:46:14;5.95;;;5.55;;
49340;SDS011;35209;51.050;13.678;2023-06-26T03:51:16;5.38;;;4.97;;
49340;SDS011;35209;51.050;13.678;2023-06-26T03:56:18;5.68;;;5.28;;
49340;SDS011;35209;51.050;13.678;2023-06-26T04:01:19;6.13;;;5.43;;
49340;SDS011;35209;51.050;13.678;2023-06-26T04:06:23;5.43;;;5.03;;
49340;SDS011;35209;51.050;13.678;2023-06-26T04:11:25;6.60;;;6.00;;
49340;SDS011;35209;51.050;13.678;2023-06-26T04:16:28;5.97;;;5.35;;
49340;SDS011;35209;51.050;13.678;2023-06-26T04:21:30;5.63;;;5.10;;
49340;SDS011;35209;51.050;13.678;2023-06-26T04:26:32;6.78;;;5.72;;
49340;SDS011;35209;51.050;13.678;2023-06-26T04:31:34;5.93;;;5.57;;
49340;SDS011;35209;51.050;13.678;2023-06-26T04:36:35;5.75;;;5.28;;
49340;SDS011;35209;51.050;13.678;2023-06-26T04:41:40;5.75;;;5.25;;
49340;SDS011;35209;51.050;13.678;2023-06-26T04:46:42;6.45;;;5.65;;
49340;SDS011;35209;51.050;13.678;2023-06-26T04:51:45;5.32;;;4.93;;
49340;SDS011;35209;51.050;13.678;2023-06-26T04:56:46;6.13;;;5.50;;
49340;SDS011;35209;51.050;13.678;2023-06-26T05:01:48;6.38;;;5.65;;
49340;SDS011;35209;51.050;13.678;2023-06-26T05:06:50;8.38;;;5.32;;
49340;SDS011;35209;51.050;13.678;2023-06-26T05:11:52;5.82;;;5.43;;
49340;SDS011;35209;51.050;13.678;2023-06-26T05:16:54;5.30;;;4.88;;
49340;SDS011;35209;51.050;13.678;2023-06-26T05:21:55;5.32;;;4.95;;
49340;SDS011;35209;51.050;13.678;2023-06-26T05:26:57;6.15;;;5.63;;
49340;SDS011;35209;51.050;13.678;2023-06-26T05:31:59;5.57;;;5.10;;
49340;SDS011;35209;51.050;13.678;2023-06-26T05:37:01;5.13;;;4.70;;
49340;SDS011;35209;51.050;13.678;2023-06-26T05:42:03;5.45;;;4.93;;
49340;SDS011;35209;51.050;13.678;2023-06-26T05:47:05;4.57;;;4.28;;
49340;SDS011;35209;51.050;13.678;2023-06-26T05:52:08;4.60;;;4.20;;
49340;SDS011;35209;51.050;13.678;2023-06-26T05:57:10;6.05;;;4.68;;
49340;SDS011;35209;51.050;13.678;2023-06-26T06:02:14;4.68;;;4.28;;
49340;SDS011;35209;51.050;13.678;2023-06-26T06:07:16;4.60;;;3.85;;
49340;SDS011;35209;51.050;13.678;2023-06-26T06:12:18;3.90;;;3.50;;
49340;SDS011;35209;51.050;13.678;2023-06-26T06:17:20;3.72;;;3.40;;
49340;SDS011;35209;51.050;13.678;2023-06-26T06:22:22;4.00;;;3.70;;
49340;SDS011;35209;51.050;13.678;2023-06-26T06:27:24;5.00;;;3.50;;
49340;SDS011;35209;51.050;13.678;2023-06-26T06:32:25;4.30;;;3.50;;
49340;SDS011;35209;51.050;13.678;2023-06-26T06:37:27;4.72;;;4.32;;
49340;SDS011;35209;51.050;13.678;2023-06-26T06:42:30;3.72;;;3.42;;
49340;SDS011;35209;51.050;13.678;2023-06-26T06:47:32;4.45;;;4.03;;
49340;SDS011;35209;51.050;13.678;2023-06-26T06:52:35;12.60;;;3.97;;
49340;SDS011;35209;51.050;13.678;2023-06-26T06:57:41;4.00;;;3.70;;
49340;SDS011;35209;51.050;13.678;2023-06-26T07:02:44;4.10;;;3.70;;
49340;SDS011;35209;51.050;13.678;2023-06-26T07:07:47;5.75;;;3.97;;
49340;SDS011;35209;51.050;13.678;2023-06-26T07:12:49;4.25;;;3.85;;
49340;SDS011;35209;51.050;13.678;2023-06-26T07:17:51;3.97;;;3.58;;
49340;SDS011;35209;51.050;13.678;2023-06-26T07:22:53;4.13;;;3.70;;
49340;SDS011;35209;51.050;13.678;2023-06-26T07:27:54;3.40;;;3.10;;
49340;SDS011;35209;51.050;13.678;2023-06-26T07:32:56;3.97;;;3.67;;
49340;SDS011;35209;51.050;13.678;2023-06-26T07:37:58;3.75;;;3.50;;
49340;SDS011;35209;51.050;13.678;2023-06-26T07:43:00;4.00;;;3.70;;
49340;SDS011;35209;51.050;13.678;2023-06-26T07:48:02;4.20;;;3.90;;
49340;SDS011;35209;51.050;13.678;2023-06-26T07:53:04;3.80;;;3.50;;
49340;SDS011;35209;51.050;13.678;2023-06-26T07:58:07;3.70;;;3.50;;
49340;SDS011;35209;51.050;13.678;2023-06-26T08:03:10;3.63;;;3.28;;
49340;SDS011;35209;51.050;13.678;2023-06-26T08:08:26;3.92;;;3.63;;
49340;SDS011;35209;51.050;13.678;2023-06-26T08:13:27;5.82;;;3.00;;
49340;SDS011;35209;51.050;13.678;2023-06-26T08:18:29;4.80;;;4.07;;
49340;SDS011;35209;51.050;13.678;2023-06-26T08:23:31;4.05;;;3.45;;
49340;SDS011;35209;51.050;13.678;2023-06-26T08:28:33;3.72;;;3.42;;
49340;SDS011;35209;51.050;13.678;2023-06-26T08:33:34;3.67;;;3.47;;
49340;SDS011;35209;51.050;13.678;2023-06-26T08:38:36;4.13;;;3.80;;
49340;SDS011;35209;51.050;13.678;2023-06-26T08:43:38;4.13;;;3.83;;
49340;SDS011;35209;51.050;13.678;2023-06-26T08:48:39;4.05;;;3.75;;
49340;SDS011;35209;51.050;13.678;2023-06-26T08:53:56;3.58;;;3.38;;
49340;SDS011;35209;51.050;13.678;2023-06-26T08:58:59;4.10;;;3.80;;
49340;SDS011;35209;51.050;13.678;2023-06-26T09:04:02;4.70;;;3.67;;
49340;SDS011;35209;51.050;13.678;2023-06-26T09:09:05;3.65;;;3.13;;
49340;SDS011;35209;51.050;13.678;2023-06-26T09:14:07;3.17;;;2.97;;
49340;SDS011;35209;51.050;13.678;2023-06-26T09:19:11;3.72;;;3.42;;
49340;SDS011;35209;51.050;13.678;2023-06-26T09:24:16;3.88;;;3.55;;
49340;SDS011;35209;51.050;13.678;2023-06-26T09:29:18;3.28;;;3.08;;
49340;SDS011;35209;51.050;13.678;2023-06-26T09:34:21;3.53;;;3.28;;
49340;SDS011;35209;51.050;13.678;2023-06-26T09:39:22;3.17;;;2.97;;
49340;SDS011;35209;51.050;13.678;2023-06-26T09:44:25;2.72;;;2.53;;
49340;SDS011;35209;51.050;13.678;2023-06-26T09:49:27;3.35;;;3.15;;
49340;SDS011;35209;51.050;13.678;2023-06-26T09:54:29;3.42;;;3.13;;
49340;SDS011;35209;51.050;13.678;2023-06-26T09:59:32;3.05;;;2.85;;
49340;SDS011;35209;51.050;13.678;2023-06-26T10:04:35;3.40;;;3.10;;
49340;SDS011;35209;51.050;13.678;2023-06-26T10:09:38;3.38;;;3.08;;
49340;SDS011;35209;51.050;13.678;2023-06-26T10:14:45;3.00;;;2.80;;
49340;SDS011;35209;51.050;13.678;2023-06-26T10:19:48;3.13;;;2.90;;
49340;SDS011;35209;51.050;13.678;2023-06-26T10:24:54;3.10;;;2.90;;
49340;SDS011;35209;51.050;13.678;2023-06-26T10:40:07;3.78;;;3.47;;
49340;SDS011;35209;51.050;13.678;2023-06-26T10:45:16;3.10;;;2.78;;
49340;SDS011;35209;51.050;13.678;2023-06-26T10:55:29;3.75;;;3.55;;
49340;SDS011;35209;51.050;13.678;2023-06-26T11:00:31;3.20;;;3.00;;
49340;SDS011;35209;51.050;13.678;2023-06-26T11:05:33;3.50;;;3.13;;
49340;SDS011;35209;51.050;13.678;2023-06-26T11:10:48;3.38;;;3.17;;
49340;SDS011;35209;51.050;13.678;2023-06-26T11:15:50;3.00;;;2.78;;
49340;SDS011;35209;51.050;13.678;2023-06-26T11:20:52;3.42;;;3.20;;
49340;SDS011;35209;51.050;13.678;2023-06-26T11:25:55;3.40;;;3.20;;
49340;SDS011;35209;51.050;13.678;2023-06-26T11:30:58;3.35;;;3.05;;
49340;SDS011;35209;51.050;13.678;2023-06-26T11:36:10;3.20;;;3.00;;
49340;SDS011;35209;51.050;13.678;2023-06-26T11:41:16;3.55;;;3.25;;
49340;SDS011;35209;51.050;13.678;2023-06-26T11:46:19;3.30;;;3.10;;
49340;SDS011;35209;51.050;13.678;2023-06-26T11:51:22;3.38;;;3.17;;
49340;SDS011;35209;51.050;13.678;2023-06-26T11:56:24;2.83;;;2.63;;
49340;SDS011;35209;51.050;13.678;2023-06-26T12:01:34;2.92;;;2.72;;
49340;SDS011;35209;51.050;13.678;2023-06-26T12:06:38;4.60;;;3.60;;
49340;SDS011;35209;51.050;13.678;2023-06-26T12:16:45;3.40;;;3.08;;
49340;SDS011;35209;51.050;13.678;2023-06-26T12:21:47;3.40;;;3.10;;
49340;SDS011;35209;51.050;13.678;2023-06-26T12:26:51;3.10;;;2.90;;
49340;SDS011;35209;51.050;13.678;2023-06-26T12:31:58;3.22;;;3.05;;
49340;SDS011;35209;51.050;13.678;2023-06-26T12:37:02;3.35;;;3.05;;
49340;SDS011;35209;51.050;13.678;2023-06-26T12:47:07;3.10;;;2.90;;
49340;SDS011;35209;51.050;13.678;2023-06-26T12:52:10;3.00;;;2.80;;
49340;SDS011;35209;51.050;13.678;2023-06-26T12:57:15;4.43;;;3.33;;
49340;SDS011;35209;51.050;13.678;2023-06-26T13:02:17;2.85;;;2.65;;
49340;SDS011;35209;51.050;13.678;2023-06-26T13:07:20;2.97;;;2.72;;
49340;SDS011;35209;51.050;13.678;2023-06-26T13:12:22;3.25;;;3.05;;
49340;SDS011;35209;51.050;13.678;2023-06-26T13:17:24;3.13;;;2.90;;
49340;SDS011;35209;51.050;13.678;2023-06-26T13:22:26;3.47;;;3.15;;
49340;SDS011;35209;51.050;13.678;2023-06-26T13:27:28;3.50;;;3.05;;
49340;SDS011;35209;51.050;13.678;2023-06-26T13:32:29;3.20;;;3.00;;
49340;SDS011;35209;51.050;13.678;2023-06-26T13:37:31;2.90;;;2.60;;
49340;SDS011;35209;51.050;13.678;2023-06-26T13:42:35;4.00;;;3.63;;
49340;SDS011;35209;51.050;13.678;2023-06-26T13:47:39;3.50;;;3.30;;
49340;SDS011;35209;51.050;13.678;2023-06-26T13:52:42;3.13;;;2.90;;
49340;SDS011;35209;51.050;13.678;2023-06-26T13:57:44;3.20;;;3.00;;
49340;SDS011;35209;51.050;13.678;2023-06-26T14:02:46;4.03;;;3.72;;
49340;SDS011;35209;51.050;13.678;2023-06-26T14:07:48;4.15;;;3.85;;
49340;SDS011;35209;51.050;13.678;2023-06-26T14:12:50;3.15;;;2.95;;
49340;SDS011;35209;51.050;13.678;2023-06-26T14:17:52;4.35;;;3.63;;
49340;SDS011;35209;51.050;13.678;2023-06-26T14:22:54;3.70;;;3.40;;
49340;SDS011;35209;51.050;13.678;2023-06-26T14:27:58;3.78;;;3.47;;
49340;SDS011;35209;51.050;13.678;2023-06-26T14:33:00;4.37;;;4.07;;
49340;SDS011;35209;51.050;13.678;2023-06-26T14:38:02;4.30;;;4.00;;
49340;SDS011;35209;51.050;13.678;2023-06-26T14:43:04;4.43;;;4.05;;
49340;SDS011;35209;51.050;13.678;2023-06-26T14:48:06;3.92;;;3.63;;
49340;SDS011;35209;51.050;13.678;2023-06-26T14:53:08;4.03;;;3.70;;
49340;SDS011;35209;51.050;13.678;2023-06-26T14:58:10;4.50;;;4.20;;
49340;SDS011;35209;51.050;13.678;2023-06-26T15:03:12;4.05;;;3.70;;
49340;SDS011;35209;51.050;13.678;2023-06-26T15:08:14;3.72;;;3.42;;
49340;SDS011;35209;51.050;13.678;2023-06-26T15:13:15;3.72;;;3.53;;
49340;SDS011;35209;51.050;13.678;2023-06-26T15:18:17;3.58;;;3.38;;
49340;SDS011;35209;51.050;13.678;2023-06-26T15:23:19;3.92;;;3.72;;
49340;SDS011;35209;51.050;13.678;2023-06-26T15:28:20;4.50;;;4.15;;
49340;SDS011;35209;51.050;13.678;2023-06-26T15:33:22;4.47;;;4.18;;
49340;SDS011;35209;51.050;13.678;2023-06-26T15:38:24;3.78;;;3.58;;
49340;SDS011;35209;51.050;13.678;2023-06-26T15:43:26;3.95;;;3.67;;
49340;SDS011;35209;51.050;13.678;2023-06-26T15:48:28;3.70;;;3.50;;
49340;SDS011;35209;51.050;13.678;2023-06-26T15:53:36;4.43;;;4.22;;
49340;SDS011;35209;51.050;13.678;2023-06-26T15:58:39;4.65;;;4.03;;
49340;SDS011;35209;51.050;13.678;2023-06-26T16:03:46;4.10;;;3.80;;
49340;SDS011;35209;51.050;13.678;2023-06-26T16:08:48;4.05;;;3.75;;
49340;SDS011;35209;51.050;13.678;2023-06-26T16:13:50;20.23;;;5.88;;
49340;SDS011;35209;51.050;13.678;2023-06-26T16:18:53;10.35;;;5.18;;
49340;SDS011;35209;51.050;13.678;2023-06-26T16:23:55;10.15;;;5.00;;
49340;SDS011;35209;51.050;13.678;2023-06-26T16:28:57;6.90;;;6.28;;
49340;SDS011;35209;51.050;13.678;2023-06-26T16:33:59;15.75;;;9.57;;
49340;SDS011;35209;51.050;13.678;2023-06-26T16:39:01;5.55;;;5.05;;
49340;SDS011;35209;51.050;13.678;2023-06-26T16:44:04;6.57;;;5.95;;
49340;SDS011;35209;51.050;13.678;2023-06-26T16:49:06;7.45;;;6.72;;
49340;SDS011;35209;51.050;13.678;2023-06-26T16:54:08;8.32;;;7.45;;
49340;SDS011;35209;51.050;13.678;2023-06-26T16:59:11;10.30;;;6.57;;
49340;SDS011;35209;51.050;13.678;2023-06-26T17:04:13;17.60;;;7.45;;
49340;SDS011;35209;51.050;13.678;2023-06-26T17:09:14;7.82;;;7.00;;
49340;SDS011;35209;51.050;13.678;2023-06-26T17:14:16;7.75;;;7.05;;
49340;SDS011;35209;51.050;13.678;2023-06-26T17:19:18;7.88;;;7.38;;
49340;SDS011;35209;51.050;13.678;2023-06-26T17:24:20;9.13;;;8.40;;
49340;SDS011;35209;51.050;13.678;2023-06-26T17:29:22;9.45;;;8.52;;
49340;SDS011;35209;51.050;13.678;2023-06-26T17:34:23;10.75;;;9.68;;
49340;SDS011;35209;51.050;13.678;2023-06-26T17:39:25;12.27;;;9.90;;
49340;SDS011;35209;51.050;13.678;2023-06-26T17:44:27;10.68;;;9.60;;
49340;SDS011;35209;51.050;13.678;2023-06-26T17:49:30;9.52;;;8.82;;
49340;SDS011;35209;51.050;13.678;2023-06-26T17:54:32;9.43;;;8.73;;
49340;SDS011;35209;51.050;13.678;2023-06-26T17:59:34;9.57;;;8.75;;
49340;SDS011;35209;51.050;13.678;2023-06-26T18:04:37;8.95;;;8.07;;
49340;SDS011;35209;51.050;13.678;2023-06-26T18:09:39;9.43;;;8.75;;
49340;SDS011;35209;51.050;13.678;2023-06-26T18:14:40;10.63;;;8.30;;
49340;SDS011;35209;51.050;13.678;2023-06-26T18:19:42;10.50;;;9.43;;
49340;SDS011;35209;51.050;13.678;2023-06-26T18:24:44;14.45;;;10.77;;
49340;SDS011;35209;51.050;13.678;2023-06-26T18:29:46;11.23;;;10.23;;
49340;SDS011;35209;51.050;13.678;2023-06-26T18:34:47;10.45;;;9.75;;
49340;SDS011;35209;51.050;13.678;2023-06-26T18:39:50;10.00;;;9.05;;
49340;SDS011;35209;51.050;13.678;2023-06-26T18:44:52;9.38;;;8.65;;
49340;SDS011;35209;51.050;13.678;2023-06-26T18:49:55;10.40;;;9.43;;
49340;SDS011;35209;51.050;13.678;2023-06-26T18:54:56;9.95;;;9.25;;
49340;SDS011;35209;51.050;13.678;2023-06-26T18:59:58;9.65;;;8.75;;
49340;SDS011;35209;51.050;13.678;2023-06-26T19:05:01;12.02;;;8.82;;
49340;SDS011;35209;51.050;13.678;2023-06-26T19:10:03;8.98;;;8.30;;
49340;SDS011;35209;51.050;13.678;2023-06-26T19:15:09;9.50;;;8.43;;
49340;SDS011;35209;51.050;13.678;2023-06-26T19:20:11;8.95;;;8.23;;
49340;SDS011;35209;51.050;13.678;2023-06-26T19:25:13;9.23;;;8.43;;
49340;SDS011;35209;51.050;13.678;2023-06-26T19:30:15;9.30;;;8.70;;
49340;SDS011;35209;51.050;13.678;2023-06-26T19:35:17;9.07;;;8.48;;
49340;SDS011;35209;51.050;13.678;2023-06-26T19:40:18;7.88;;;7.32;;
49340;SDS011;35209;51.050;13.678;2023-06-26T19:45:20;8.70;;;8.00;;
49340;SDS011;35209;51.050;13.678;2023-06-26T19:50:22;8.52;;;8.00;;
49340;SDS011;35209;51.050;13.678;2023-06-26T19:55:23;8.75;;;8.15;;
49340;SDS011;35209;51.050;13.678;2023-06-26T20:00:25;10.55;;;9.68;;
49340;SDS011;35209;51.050;13.678;2023-06-26T20:05:27;10.02;;;9.43;;
49340;SDS011;35209;51.050;13.678;2023-06-26T20:10:29;10.48;;;9.60;;
49340;SDS011;35209;51.050;13.678;2023-06-26T20:15:31;9.25;;;8.60;;
49340;SDS011;35209;51.050;13.678;2023-06-26T20:20:33;10.70;;;9.82;;
49340;SDS011;35209;51.050;13.678;2023-06-26T20:25:35;10.15;;;9.43;;
49340;SDS011;35209;51.050;13.678;2023-06-26T20:30:37;9.55;;;8.85;;
49340;SDS011;35209;51.050;13.678;2023-06-26T20:35:38;9.48;;;8.93;;
49340;SDS011;35209;51.050;13.678;2023-06-26T20:40:41;9.27;;;8.35;;
49340;SDS011;35209;51.050;13.678;2023-06-26T20:45:43;9.07;;;8.45;;
49340;SDS011;35209;51.050;13.678;2023-06-26T20:50:45;9.45;;;8.85;;
49340;SDS011;35209;51.050;13.678;2023-06-26T20:55:47;10.32;;;9.63;;
49340;SDS011;35209;51.050;13.678;2023-06-26T21:00:49;9.32;;;8.73;;
49340;SDS011;35209;51.050;13.678;2023-06-26T21:05:51;11.18;;;10.48;;
49340;SDS011;35209;51.050;13.678;2023-06-26T21:10:54;10.18;;;9.57;;
49340;SDS011;35209;51.050;13.678;2023-06-26T21:15:56;10.15;;;9.45;;
49340;SDS011;35209;51.050;13.678;2023-06-26T21:20:58;10.23;;;9.52;;
49340;SDS011;35209;51.050;13.678;2023-06-26T21:25:59;11.13;;;10.32;;
49340;SDS011;35209;51.050;13.678;2023-06-26T21:31:01;11.68;;;10.77;;
49340;SDS011;35209;51.050;13.678;2023-06-26T21:36:03;10.90;;;10.02;;
49340;SDS011;35209;51.050;13.678;2023-06-26T21:41:05;10.43;;;9.65;;
49340;SDS011;35209;51.050;13.678;2023-06-26T21:46:06;10.52;;;9.68;;
49340;SDS011;35209;51.050;13.678;2023-06-26T21:51:08;10.90;;;9.98;;
49340;SDS011;35209;51.050;13.678;2023-06-26T21:56:10;12.43;;;11.43;;
49340;SDS011;35209;51.050;13.678;2023-06-26T22:01:12;11.52;;;10.73;;
49340;SDS011;35209;51.050;13.678;2023-06-26T22:06:13;11.65;;;10.85;;
49340;SDS011;35209;51.050;13.678;2023-06-26T22:11:15;12.07;;;11.18;;
49340;SDS011;35209;51.050;13.678;2023-06-26T22:16:17;10.60;;;9.90;;
49340;SDS011;35209;51.050;13.678;2023-06-26T22:21:19;11.55;;;10.57;;
49340;SDS011;35209;51.050;13.678;2023-06-26T22:26:21;11.50;;;10.63;;
49340;SDS011;35209;51.050;13.678;2023-06-26T22:31:22;10.55;;;9.75;;
49340;SDS011;35209;51.050;13.678;2023-06-26T22:36:24;11.25;;;10.35;;
49340;SDS011;35209;51.050;13.678;2023-06-26T22:41:27;13.13;;;8.98;;
49340;SDS011;35209;51.050;13.678;2023-06-26T22:46:29;10.27;;;9.38;;
49340;SDS011;35209;51.050;13.678;2023-06-26T22:51:30;9.48;;;8.77;;
49340;SDS011;35209;51.050;13.678;2023-06-26T22:56:32;9.95;;;9.05;;
49340;SDS011;35209;51.050;13.678;2023-06-26T23:01:55;9.65;;;8.85;;
49340;SDS011;35209;51.050;13.678;2023-06-26T23:06:57;10.52;;;9.68;;
49340;SDS011;35209;51.050;13.678;2023-06-26T23:12:01;9.27;;;8.63;;
49340;SDS011;35209;51.050;13.678;2023-06-26T23:17:02;10.20;;;9.40;;
49340;SDS011;35209;51.050;13.678;2023-06-26T23:22:05;10.55;;;9.55;;
49340;SDS011;35209;51.050;13.678;2023-06-26T23:27:11;7.22;;;5.75;;
49340;SDS011;35209;51.050;13.678;2023-06-26T23:32:13;4.10;;;3.70;;
49340;SDS011;35209;51.050;13.678;2023-06-26T23:37:16;3.90;;;2.97;;
49340;SDS011;35209;51.050;13.678;2023-06-26T23:42:27;4.40;;;3.08;;
49340;SDS011;35209;51.050;13.678;2023-06-26T23:47:28;3.20;;;2.88;;
49340;SDS011;35209;51.050;13.678;2023-06-26T23:52:30;3.58;;;2.92;;
49340;SDS011;35209;51.050;13.678;2023-06-26T23:57:32;3.65;;;2.58;;
